sensor_id;sensor_type;location;lat;lon;timestamp;temperature;humidity
52787;DHT22;38661;53.152;5.846;2023-06-24T00:00:06;17.40;81.10
52787;DHT22;38661;53.152;5.846;2023-06-24T00:02:34;17.30;81.10
52787;DHT22;38661;53.152;5.846;2023-06-24T00:05:02;17.30;81.20
52787;DHT22;38661;53.152;5.846;2023-06-24T00:07:29;17.30;81.50
52787;DHT22;38661;53.152;5.846;2023-06-24T00:09:55;17.30;81.60
52787;DHT22;38661;53.152;5.846;2023-06-24T00:12:21;17.20;81.70
52787;DHT22;38661;53.152;5.846;2023-06-24T00:14:47;17.10;82.00
52787;DHT22;38661;53.152;5.846;2023-06-24T00:17:13;17.00;82.20
52787;DHT22;38661;53.152;5.846;2023-06-24T00:19:39;17.00;82.50
52787;DHT22;38661;53.152;5.846;2023-06-24T00:22:05;17.00;82.50
52787;DHT22;38661;53.152;5.846;2023-06-24T00:24:32;16.90;82.70
52787;DHT22;38661;53.152;5.846;2023-06-24T00:26:57;16.90;82.80
52787;DHT22;38661;53.152;5.846;2023-06-24T00:29:23;16.90;82.90
52787;DHT22;38661;53.152;5.846;2023-06-24T00:31:49;16.90;83.30
52787;DHT22;38661;53.152;5.846;2023-06-24T00:34:15;16.80;83.20
52787;DHT22;38661;53.152;5.846;2023-06-24T00:36:41;16.80;83.20
52787;DHT22;38661;53.152;5.846;2023-06-24T00:39:09;16.80;83.20
52787;DHT22;38661;53.152;5.846;2023-06-24T00:41:36;16.70;83.20
52787;DHT22;38661;53.152;5.846;2023-06-24T00:44:02;16.70;83.30
52787;DHT22;38661;53.152;5.846;2023-06-24T00:46:28;16.70;83.40
52787;DHT22;38661;53.152;5.846;2023-06-24T00:48:55;16.70;83.40
52787;DHT22;38661;53.152;5.846;2023-06-24T00:51:22;16.60;83.60
52787;DHT22;38661;53.152;5.846;2023-06-24T00:53:53;16.60;83.70
52787;DHT22;38661;53.152;5.846;2023-06-24T00:56:21;16.50;83.80
52787;DHT22;38661;53.152;5.846;2023-06-24T00:58:48;16.50;83.70
52787;DHT22;38661;53.152;5.846;2023-06-24T01:01:15;16.40;84.00
52787;DHT22;38661;53.152;5.846;2023-06-24T01:03:41;16.40;84.10
52787;DHT22;38661;53.152;5.846;2023-06-24T01:06:08;16.40;84.10
52787;DHT22;38661;53.152;5.846;2023-06-24T01:08:34;16.40;84.40
52787;DHT22;38661;53.152;5.846;2023-06-24T01:11:00;16.40;84.40
52787;DHT22;38661;53.152;5.846;2023-06-24T01:13:26;16.40;84.60
52787;DHT22;38661;53.152;5.846;2023-06-24T01:15:51;16.40;84.50
52787;DHT22;38661;53.152;5.846;2023-06-24T01:18:28;16.40;84.30
52787;DHT22;38661;53.152;5.846;2023-06-24T01:20:56;16.40;84.30
52787;DHT22;38661;53.152;5.846;2023-06-24T01:26:33;16.20;84.30
52787;DHT22;38661;53.152;5.846;2023-06-24T01:34:15;16.20;84.40
52787;DHT22;38661;53.152;5.846;2023-06-24T01:36:54;16.20;84.30
52787;DHT22;38661;53.152;5.846;2023-06-24T01:39:22;16.20;84.50
52787;DHT22;38661;53.152;5.846;2023-06-24T01:41:56;16.20;84.80
52787;DHT22;38661;53.152;5.846;2023-06-24T01:44:25;16.30;85.20
52787;DHT22;38661;53.152;5.846;2023-06-24T01:46:55;16.20;84.90
52787;DHT22;38661;53.152;5.846;2023-06-24T01:49:24;16.30;84.60
52787;DHT22;38661;53.152;5.846;2023-06-24T01:51:54;16.30;84.50
52787;DHT22;38661;53.152;5.846;2023-06-24T01:54:22;16.30;84.30
52787;DHT22;38661;53.152;5.846;2023-06-24T01:56:49;16.30;84.30
52787;DHT22;38661;53.152;5.846;2023-06-24T01:59:18;16.30;84.20
52787;DHT22;38661;53.152;5.846;2023-06-24T02:01:45;16.30;83.70
52787;DHT22;38661;53.152;5.846;2023-06-24T02:04:12;16.30;83.70
52787;DHT22;38661;53.152;5.846;2023-06-24T02:06:40;16.20;83.70
52787;DHT22;38661;53.152;5.846;2023-06-24T02:09:07;16.20;83.80
52787;DHT22;38661;53.152;5.846;2023-06-24T02:11:33;16.20;83.80
52787;DHT22;38661;53.152;5.846;2023-06-24T02:14:01;16.10;83.70
52787;DHT22;38661;53.152;5.846;2023-06-24T02:16:29;16.00;84.10
52787;DHT22;38661;53.152;5.846;2023-06-24T02:18:56;16.00;83.90
52787;DHT22;38661;53.152;5.846;2023-06-24T02:21:23;16.00;83.80
52787;DHT22;38661;53.152;5.846;2023-06-24T02:23:51;16.00;83.80
52787;DHT22;38661;53.152;5.846;2023-06-24T02:26:17;16.00;84.60
52787;DHT22;38661;53.152;5.846;2023-06-24T02:28:47;15.90;84.70
52787;DHT22;38661;53.152;5.846;2023-06-24T02:31:14;15.90;84.10
52787;DHT22;38661;53.152;5.846;2023-06-24T02:33:40;15.90;84.40
52787;DHT22;38661;53.152;5.846;2023-06-24T02:36:06;15.90;84.10
52787;DHT22;38661;53.152;5.846;2023-06-24T02:38:33;15.90;84.00
52787;DHT22;38661;53.152;5.846;2023-06-24T02:40:59;15.90;84.10
52787;DHT22;38661;53.152;5.846;2023-06-24T02:43:28;15.90;84.10
52787;DHT22;38661;53.152;5.846;2023-06-24T02:45:53;15.90;83.90
52787;DHT22;38661;53.152;5.846;2023-06-24T02:48:20;15.90;84.20
52787;DHT22;38661;53.152;5.846;2023-06-24T02:50:47;15.80;84.40
52787;DHT22;38661;53.152;5.846;2023-06-24T02:53:14;15.80;84.30
52787;DHT22;38661;53.152;5.846;2023-06-24T02:55:41;15.80;84.30
52787;DHT22;38661;53.152;5.846;2023-06-24T02:58:08;15.80;84.30
52787;DHT22;38661;53.152;5.846;2023-06-24T03:00:35;15.70;84.40
52787;DHT22;38661;53.152;5.846;2023-06-24T03:03:02;15.60;84.70
52787;DHT22;38661;53.152;5.846;2023-06-24T03:05:30;15.70;84.40
52787;DHT22;38661;53.152;5.846;2023-06-24T03:07:57;15.70;84.70
52787;DHT22;38661;53.152;5.846;2023-06-24T03:10:24;15.60;84.70
52787;DHT22;38661;53.152;5.846;2023-06-24T03:12:51;15.60;84.60
52787;DHT22;38661;53.152;5.846;2023-06-24T03:15:17;15.60;84.80
52787;DHT22;38661;53.152;5.846;2023-06-24T03:17:43;15.60;84.60
52787;DHT22;38661;53.152;5.846;2023-06-24T03:20:09;15.60;84.60
52787;DHT22;38661;53.152;5.846;2023-06-24T03:22:35;15.60;84.60
52787;DHT22;38661;53.152;5.846;2023-06-24T03:25:01;15.60;84.80
52787;DHT22;38661;53.152;5.846;2023-06-24T03:27:26;15.50;85.40
52787;DHT22;38661;53.152;5.846;2023-06-24T03:29:52;15.50;85.60
52787;DHT22;38661;53.152;5.846;2023-06-24T03:32:18;15.40;85.80
52787;DHT22;38661;53.152;5.846;2023-06-24T03:34:43;15.40;85.80
52787;DHT22;38661;53.152;5.846;2023-06-24T03:37:09;15.40;85.60
52787;DHT22;38661;53.152;5.846;2023-06-24T03:39:35;15.50;85.30
52787;DHT22;38661;53.152;5.846;2023-06-24T03:42:00;15.50;85.30
52787;DHT22;38661;53.152;5.846;2023-06-24T03:44:26;15.50;85.40
52787;DHT22;38661;53.152;5.846;2023-06-24T03:46:52;15.50;85.30
52787;DHT22;38661;53.152;5.846;2023-06-24T03:49:17;15.50;85.20
52787;DHT22;38661;53.152;5.846;2023-06-24T03:51:43;15.50;85.30
52787;DHT22;38661;53.152;5.846;2023-06-24T03:54:09;15.50;85.30
52787;DHT22;38661;53.152;5.846;2023-06-24T03:56:35;15.50;85.50
52787;DHT22;38661;53.152;5.846;2023-06-24T03:59:01;15.50;85.30
52787;DHT22;38661;53.152;5.846;2023-06-24T04:01:27;15.60;85.20
52787;DHT22;38661;53.152;5.846;2023-06-24T04:03:52;15.50;85.70
52787;DHT22;38661;53.152;5.846;2023-06-24T04:06:18;15.60;85.40
52787;DHT22;38661;53.152;5.846;2023-06-24T04:08:44;15.60;85.30
52787;DHT22;38661;53.152;5.846;2023-06-24T04:11:09;15.60;85.10
52787;DHT22;38661;53.152;5.846;2023-06-24T04:13:35;15.60;85.50
52787;DHT22;38661;53.152;5.846;2023-06-24T04:16:01;15.60;86.00
52787;DHT22;38661;53.152;5.846;2023-06-24T04:18:27;15.60;85.90
52787;DHT22;38661;53.152;5.846;2023-06-24T04:20:53;15.60;85.70
52787;DHT22;38661;53.152;5.846;2023-06-24T04:23:19;15.60;85.40
52787;DHT22;38661;53.152;5.846;2023-06-24T04:25:45;15.70;85.20
52787;DHT22;38661;53.152;5.846;2023-06-24T04:28:10;15.70;85.10
52787;DHT22;38661;53.152;5.846;2023-06-24T04:30:36;15.80;85.50
52787;DHT22;38661;53.152;5.846;2023-06-24T04:33:04;15.80;84.90
52787;DHT22;38661;53.152;5.846;2023-06-24T04:35:30;15.90;85.50
52787;DHT22;38661;53.152;5.846;2023-06-24T04:37:56;15.90;85.00
52787;DHT22;38661;53.152;5.846;2023-06-24T04:40:22;15.90;85.50
52787;DHT22;38661;53.152;5.846;2023-06-24T04:42:48;16.00;85.30
52787;DHT22;38661;53.152;5.846;2023-06-24T04:45:14;16.00;85.10
52787;DHT22;38661;53.152;5.846;2023-06-24T04:47:40;16.10;85.10
52787;DHT22;38661;53.152;5.846;2023-06-24T04:50:06;16.10;85.40
52787;DHT22;38661;53.152;5.846;2023-06-24T04:52:35;16.20;85.20
52787;DHT22;38661;53.152;5.846;2023-06-24T04:55:00;16.20;85.70
52787;DHT22;38661;53.152;5.846;2023-06-24T04:57:28;16.30;85.50
52787;DHT22;38661;53.152;5.846;2023-06-24T04:59:54;16.40;85.90
52787;DHT22;38661;53.152;5.846;2023-06-24T05:02:20;16.40;86.30
52787;DHT22;38661;53.152;5.846;2023-06-24T05:04:46;16.40;86.60
52787;DHT22;38661;53.152;5.846;2023-06-24T05:07:12;16.40;86.70
52787;DHT22;38661;53.152;5.846;2023-06-24T05:09:38;16.50;86.40
52787;DHT22;38661;53.152;5.846;2023-06-24T05:12:04;16.50;86.00
52787;DHT22;38661;53.152;5.846;2023-06-24T05:14:30;16.60;86.90
52787;DHT22;38661;53.152;5.846;2023-06-24T05:16:56;16.70;86.40
52787;DHT22;38661;53.152;5.846;2023-06-24T05:19:22;16.80;86.40
52787;DHT22;38661;53.152;5.846;2023-06-24T05:21:47;16.90;86.90
52787;DHT22;38661;53.152;5.846;2023-06-24T05:24:13;16.90;87.00
52787;DHT22;38661;53.152;5.846;2023-06-24T05:26:39;17.10;87.50
52787;DHT22;38661;53.152;5.846;2023-06-24T05:29:05;17.20;86.90
52787;DHT22;38661;53.152;5.846;2023-06-24T05:31:30;17.30;87.60
52787;DHT22;38661;53.152;5.846;2023-06-24T05:33:56;17.50;87.40
52787;DHT22;38661;53.152;5.846;2023-06-24T05:36:22;17.60;87.30
52787;DHT22;38661;53.152;5.846;2023-06-24T05:38:47;17.70;87.20
52787;DHT22;38661;53.152;5.846;2023-06-24T05:41:14;17.90;86.50
52787;DHT22;38661;53.152;5.846;2023-06-24T05:43:43;18.00;86.40
52787;DHT22;38661;53.152;5.846;2023-06-24T05:46:09;18.20;86.40
52787;DHT22;38661;53.152;5.846;2023-06-24T05:48:34;18.40;86.20
52787;DHT22;38661;53.152;5.846;2023-06-24T05:51:00;18.50;85.70
52787;DHT22;38661;53.152;5.846;2023-06-24T05:53:26;18.70;85.80
52787;DHT22;38661;53.152;5.846;2023-06-24T05:55:51;18.90;86.00
52787;DHT22;38661;53.152;5.846;2023-06-24T05:58:17;19.00;85.60
52787;DHT22;38661;53.152;5.846;2023-06-24T06:00:43;19.10;85.00
52787;DHT22;38661;53.152;5.846;2023-06-24T06:03:09;19.30;84.60
52787;DHT22;38661;53.152;5.846;2023-06-24T06:05:35;19.40;84.30
52787;DHT22;38661;53.152;5.846;2023-06-24T06:08:00;19.50;84.10
52787;DHT22;38661;53.152;5.846;2023-06-24T06:10:26;19.60;84.00
52787;DHT22;38661;53.152;5.846;2023-06-24T06:12:52;19.60;83.90
52787;DHT22;38661;53.152;5.846;2023-06-24T06:15:19;19.60;83.90
52787;DHT22;38661;53.152;5.846;2023-06-24T06:17:46;19.70;83.80
52787;DHT22;38661;53.152;5.846;2023-06-24T06:20:12;19.80;83.60
52787;DHT22;38661;53.152;5.846;2023-06-24T06:22:37;19.80;83.80
52787;DHT22;38661;53.152;5.846;2023-06-24T06:25:05;19.90;83.80
52787;DHT22;38661;53.152;5.846;2023-06-24T06:27:31;19.90;83.70
52787;DHT22;38661;53.152;5.846;2023-06-24T06:29:57;20.00;83.70
52787;DHT22;38661;53.152;5.846;2023-06-24T06:32:22;20.10;83.60
52787;DHT22;38661;53.152;5.846;2023-06-24T06:34:50;20.10;83.40
52787;DHT22;38661;53.152;5.846;2023-06-24T06:37:15;20.20;83.10
52787;DHT22;38661;53.152;5.846;2023-06-24T06:39:41;20.20;82.60
52787;DHT22;38661;53.152;5.846;2023-06-24T06:42:07;20.40;82.60
52787;DHT22;38661;53.152;5.846;2023-06-24T06:44:32;20.40;82.50
52787;DHT22;38661;53.152;5.846;2023-06-24T06:46:58;20.50;82.40
52787;DHT22;38661;53.152;5.846;2023-06-24T06:49:24;20.50;82.30
52787;DHT22;38661;53.152;5.846;2023-06-24T06:51:51;20.60;81.80
52787;DHT22;38661;53.152;5.846;2023-06-24T06:54:17;20.70;81.70
52787;DHT22;38661;53.152;5.846;2023-06-24T06:56:43;20.70;81.10
52787;DHT22;38661;53.152;5.846;2023-06-24T06:59:08;20.80;81.00
52787;DHT22;38661;53.152;5.846;2023-06-24T07:01:34;20.80;81.00
52787;DHT22;38661;53.152;5.846;2023-06-24T07:04:00;20.90;80.80
52787;DHT22;38661;53.152;5.846;2023-06-24T07:06:25;20.90;80.00
52787;DHT22;38661;53.152;5.846;2023-06-24T07:08:52;21.00;79.60
52787;DHT22;38661;53.152;5.846;2023-06-24T07:11:17;21.10;80.10
52787;DHT22;38661;53.152;5.846;2023-06-24T07:13:43;21.10;79.80
52787;DHT22;38661;53.152;5.846;2023-06-24T07:16:11;21.20;79.40
52787;DHT22;38661;53.152;5.846;2023-06-24T07:18:37;21.30;79.70
52787;DHT22;38661;53.152;5.846;2023-06-24T07:21:03;21.30;79.50
52787;DHT22;38661;53.152;5.846;2023-06-24T07:23:29;21.40;79.60
52787;DHT22;38661;53.152;5.846;2023-06-24T07:25:54;21.40;80.00
52787;DHT22;38661;53.152;5.846;2023-06-24T07:28:20;21.40;80.00
52787;DHT22;38661;53.152;5.846;2023-06-24T07:30:46;21.40;79.90
52787;DHT22;38661;53.152;5.846;2023-06-24T07:33:11;21.40;80.10
52787;DHT22;38661;53.152;5.846;2023-06-24T07:35:40;21.40;80.40
52787;DHT22;38661;53.152;5.846;2023-06-24T07:38:06;21.50;80.50
52787;DHT22;38661;53.152;5.846;2023-06-24T07:40:31;21.50;80.60
52787;DHT22;38661;53.152;5.846;2023-06-24T07:42:57;21.60;80.50
52787;DHT22;38661;53.152;5.846;2023-06-24T07:45:23;21.70;80.60
52787;DHT22;38661;53.152;5.846;2023-06-24T07:47:49;21.70;80.50
52787;DHT22;38661;53.152;5.846;2023-06-24T07:50:15;21.90;80.50
52787;DHT22;38661;53.152;5.846;2023-06-24T07:52:40;21.90;80.70
52787;DHT22;38661;53.152;5.846;2023-06-24T07:55:06;22.00;80.20
52787;DHT22;38661;53.152;5.846;2023-06-24T07:57:32;22.10;79.90
52787;DHT22;38661;53.152;5.846;2023-06-24T07:59:58;22.20;79.20
52787;DHT22;38661;53.152;5.846;2023-06-24T08:02:23;22.40;79.30
52787;DHT22;38661;53.152;5.846;2023-06-24T08:04:50;22.40;79.00
52787;DHT22;38661;53.152;5.846;2023-06-24T08:07:16;22.50;76.90
52787;DHT22;38661;53.152;5.846;2023-06-24T08:09:42;22.70;77.30
52787;DHT22;38661;53.152;5.846;2023-06-24T08:12:08;22.80;77.40
52787;DHT22;38661;53.152;5.846;2023-06-24T08:14:33;22.80;74.60
52787;DHT22;38661;53.152;5.846;2023-06-24T08:17:00;22.80;75.40
52787;DHT22;38661;53.152;5.846;2023-06-24T08:19:26;22.90;74.80
52787;DHT22;38661;53.152;5.846;2023-06-24T08:21:52;22.90;74.90
52787;DHT22;38661;53.152;5.846;2023-06-24T08:24:18;23.00;73.90
52787;DHT22;38661;53.152;5.846;2023-06-24T08:26:44;23.10;73.90
52787;DHT22;38661;53.152;5.846;2023-06-24T08:29:09;23.20;74.00
52787;DHT22;38661;53.152;5.846;2023-06-24T08:31:35;23.30;73.90
52787;DHT22;38661;53.152;5.846;2023-06-24T08:34:01;23.30;72.70
52787;DHT22;38661;53.152;5.846;2023-06-24T08:36:28;23.40;73.00
52787;DHT22;38661;53.152;5.846;2023-06-24T08:38:55;23.40;72.10
52787;DHT22;38661;53.152;5.846;2023-06-24T08:41:20;23.50;71.70
52787;DHT22;38661;53.152;5.846;2023-06-24T08:43:47;23.70;71.90
52787;DHT22;38661;53.152;5.846;2023-06-24T08:46:16;23.90;69.70
52787;DHT22;38661;53.152;5.846;2023-06-24T08:48:45;24.00;69.20
52787;DHT22;38661;53.152;5.846;2023-06-24T08:51:14;24.10;67.60
52787;DHT22;38661;53.152;5.846;2023-06-24T08:53:43;24.10;65.80
52787;DHT22;38661;53.152;5.846;2023-06-24T08:56:09;24.10;65.70
52787;DHT22;38661;53.152;5.846;2023-06-24T08:58:35;24.30;66.00
52787;DHT22;38661;53.152;5.846;2023-06-24T09:01:02;24.40;65.50
52787;DHT22;38661;53.152;5.846;2023-06-24T09:03:28;24.50;64.30
52787;DHT22;38661;53.152;5.846;2023-06-24T09:05:53;24.70;64.70
52787;DHT22;38661;53.152;5.846;2023-06-24T09:08:19;24.90;63.30
52787;DHT22;38661;53.152;5.846;2023-06-24T09:10:53;25.00;62.10
52787;DHT22;38661;53.152;5.846;2023-06-24T09:13:34;25.20;61.50
52787;DHT22;38661;53.152;5.846;2023-06-24T09:16:14;25.40;61.30
52787;DHT22;38661;53.152;5.846;2023-06-24T09:18:40;25.60;60.30
52787;DHT22;38661;53.152;5.846;2023-06-24T09:21:07;25.70;60.40
52787;DHT22;38661;53.152;5.846;2023-06-24T09:23:38;25.70;58.30
52787;DHT22;38661;53.152;5.846;2023-06-24T09:26:09;25.80;58.30
52787;DHT22;38661;53.152;5.846;2023-06-24T09:28:35;25.80;58.40
52787;DHT22;38661;53.152;5.846;2023-06-24T09:31:10;25.90;59.00
52787;DHT22;38661;53.152;5.846;2023-06-24T09:33:36;26.00;57.30
52787;DHT22;38661;53.152;5.846;2023-06-24T09:36:05;26.10;57.00
52787;DHT22;38661;53.152;5.846;2023-06-24T09:38:37;26.00;54.80
52787;DHT22;38661;53.152;5.846;2023-06-24T09:41:06;26.10;55.50
52787;DHT22;38661;53.152;5.846;2023-06-24T09:43:36;26.20;56.40
52787;DHT22;38661;53.152;5.846;2023-06-24T09:46:03;26.30;56.40
52787;DHT22;38661;53.152;5.846;2023-06-24T09:48:29;26.20;56.90
52787;DHT22;38661;53.152;5.846;2023-06-24T09:50:58;26.30;57.50
52787;DHT22;38661;53.152;5.846;2023-06-24T09:53:25;26.40;57.70
52787;DHT22;38661;53.152;5.846;2023-06-24T09:55:52;26.40;56.30
52787;DHT22;38661;53.152;5.846;2023-06-24T09:58:19;26.50;56.70
52787;DHT22;38661;53.152;5.846;2023-06-24T10:00:46;26.60;55.90
52787;DHT22;38661;53.152;5.846;2023-06-24T10:03:12;26.60;56.20
52787;DHT22;38661;53.152;5.846;2023-06-24T10:05:38;26.70;56.40
52787;DHT22;38661;53.152;5.846;2023-06-24T10:08:05;26.70;56.50
52787;DHT22;38661;53.152;5.846;2023-06-24T10:10:31;26.70;56.30
52787;DHT22;38661;53.152;5.846;2023-06-24T10:12:57;26.90;56.90
52787;DHT22;38661;53.152;5.846;2023-06-24T10:15:23;26.90;58.00
52787;DHT22;38661;53.152;5.846;2023-06-24T10:17:51;26.90;57.50
52787;DHT22;38661;53.152;5.846;2023-06-24T10:20:26;27.10;57.30
52787;DHT22;38661;53.152;5.846;2023-06-24T10:22:52;27.20;56.70
52787;DHT22;38661;53.152;5.846;2023-06-24T10:25:18;27.20;56.40
52787;DHT22;38661;53.152;5.846;2023-06-24T10:27:44;27.10;56.50
52787;DHT22;38661;53.152;5.846;2023-06-24T10:30:20;27.10;56.00
52787;DHT22;38661;53.152;5.846;2023-06-24T10:32:52;26.90;55.00
52787;DHT22;38661;53.152;5.846;2023-06-24T10:35:25;27.00;54.90
52787;DHT22;38661;53.152;5.846;2023-06-24T10:37:59;27.00;54.90
52787;DHT22;38661;53.152;5.846;2023-06-24T10:40:44;27.00;53.90
52787;DHT22;38661;53.152;5.846;2023-06-24T10:43:27;27.10;53.50
52787;DHT22;38661;53.152;5.846;2023-06-24T10:45:55;27.20;52.60
52787;DHT22;38661;53.152;5.846;2023-06-24T10:48:22;27.20;53.20
52787;DHT22;38661;53.152;5.846;2023-06-24T10:50:48;27.30;53.00
52787;DHT22;38661;53.152;5.846;2023-06-24T10:53:15;27.40;53.10
52787;DHT22;38661;53.152;5.846;2023-06-24T10:55:44;27.40;53.30
52787;DHT22;38661;53.152;5.846;2023-06-24T10:58:12;27.60;53.00
52787;DHT22;38661;53.152;5.846;2023-06-24T11:00:40;27.80;52.80
52787;DHT22;38661;53.152;5.846;2023-06-24T11:03:14;27.70;52.80
52787;DHT22;38661;53.152;5.846;2023-06-24T11:05:41;27.60;52.60
52787;DHT22;38661;53.152;5.846;2023-06-24T11:08:10;27.60;51.10
52787;DHT22;38661;53.152;5.846;2023-06-24T11:10:46;27.10;53.30
52787;DHT22;38661;53.152;5.846;2023-06-24T11:13:13;27.40;54.40
52787;DHT22;38661;53.152;5.846;2023-06-24T11:15:39;27.40;52.00
52787;DHT22;38661;53.152;5.846;2023-06-24T11:18:08;27.50;52.50
52787;DHT22;38661;53.152;5.846;2023-06-24T11:20:36;27.40;53.10
52787;DHT22;38661;53.152;5.846;2023-06-24T11:23:06;27.20;52.30
52787;DHT22;38661;53.152;5.846;2023-06-24T11:25:41;27.20;52.70
52787;DHT22;38661;53.152;5.846;2023-06-24T11:28:33;27.50;53.00
52787;DHT22;38661;53.152;5.846;2023-06-24T11:31:08;27.80;52.30
52787;DHT22;38661;53.152;5.846;2023-06-24T11:33:35;27.90;51.50
52787;DHT22;38661;53.152;5.846;2023-06-24T11:36:01;28.10;50.90
52787;DHT22;38661;53.152;5.846;2023-06-24T11:38:28;28.20;50.80
52787;DHT22;38661;53.152;5.846;2023-06-24T11:40:57;28.20;51.10
52787;DHT22;38661;53.152;5.846;2023-06-24T11:43:25;28.40;50.80
52787;DHT22;38661;53.152;5.846;2023-06-24T11:45:51;28.50;49.70
52787;DHT22;38661;53.152;5.846;2023-06-24T11:48:17;28.60;49.80
52787;DHT22;38661;53.152;5.846;2023-06-24T11:51:00;28.70;49.40
52787;DHT22;38661;53.152;5.846;2023-06-24T11:53:41;28.80;49.20
52787;DHT22;38661;53.152;5.846;2023-06-24T11:56:11;28.70;49.90
52787;DHT22;38661;53.152;5.846;2023-06-24T11:58:38;28.80;50.70
52787;DHT22;38661;53.152;5.846;2023-06-24T12:01:03;28.80;50.00
52787;DHT22;38661;53.152;5.846;2023-06-24T12:03:32;28.90;50.80
52787;DHT22;38661;53.152;5.846;2023-06-24T12:05:59;29.00;50.00
52787;DHT22;38661;53.152;5.846;2023-06-24T12:08:25;29.10;49.30
52787;DHT22;38661;53.152;5.846;2023-06-24T12:10:52;29.10;49.40
52787;DHT22;38661;53.152;5.846;2023-06-24T12:13:18;29.20;49.30
52787;DHT22;38661;53.152;5.846;2023-06-24T12:15:44;29.30;48.60
52787;DHT22;38661;53.152;5.846;2023-06-24T12:18:10;29.30;48.10
52787;DHT22;38661;53.152;5.846;2023-06-24T12:20:36;29.30;47.20
52787;DHT22;38661;53.152;5.846;2023-06-24T12:23:03;29.40;48.10
52787;DHT22;38661;53.152;5.846;2023-06-24T12:25:31;29.40;47.70
52787;DHT22;38661;53.152;5.846;2023-06-24T12:27:57;29.40;47.00
52787;DHT22;38661;53.152;5.846;2023-06-24T12:30:24;29.40;47.20
52787;DHT22;38661;53.152;5.846;2023-06-24T12:32:50;29.30;46.60
52787;DHT22;38661;53.152;5.846;2023-06-24T12:35:16;29.30;46.10
52787;DHT22;38661;53.152;5.846;2023-06-24T12:37:42;29.40;46.70
52787;DHT22;38661;53.152;5.846;2023-06-24T12:40:10;29.40;46.30
52787;DHT22;38661;53.152;5.846;2023-06-24T12:42:38;29.40;46.10
52787;DHT22;38661;53.152;5.846;2023-06-24T12:45:04;29.40;45.90
52787;DHT22;38661;53.152;5.846;2023-06-24T12:47:30;29.40;45.40
52787;DHT22;38661;53.152;5.846;2023-06-24T12:49:55;29.50;46.40
52787;DHT22;38661;53.152;5.846;2023-06-24T12:52:21;29.60;46.60
52787;DHT22;38661;53.152;5.846;2023-06-24T12:54:47;29.80;46.00
52787;DHT22;38661;53.152;5.846;2023-06-24T12:57:14;29.90;45.70
52787;DHT22;38661;53.152;5.846;2023-06-24T12:59:43;29.90;45.70
52787;DHT22;38661;53.152;5.846;2023-06-24T13:02:09;30.00;45.30
52787;DHT22;38661;53.152;5.846;2023-06-24T13:04:37;30.10;44.10
52787;DHT22;38661;53.152;5.846;2023-06-24T13:07:10;30.10;44.20
52787;DHT22;38661;53.152;5.846;2023-06-24T13:09:35;29.80;45.20
52787;DHT22;38661;53.152;5.846;2023-06-24T13:12:04;29.80;44.70
52787;DHT22;38661;53.152;5.846;2023-06-24T13:14:30;29.90;44.90
52787;DHT22;38661;53.152;5.846;2023-06-24T13:16:56;29.90;44.80
52787;DHT22;38661;53.152;5.846;2023-06-24T13:19:22;29.90;45.10
52787;DHT22;38661;53.152;5.846;2023-06-24T13:21:47;29.90;44.70
52787;DHT22;38661;53.152;5.846;2023-06-24T13:24:13;30.00;45.30
52787;DHT22;38661;53.152;5.846;2023-06-24T13:26:39;30.00;44.70
52787;DHT22;38661;53.152;5.846;2023-06-24T13:29:05;30.00;43.80
52787;DHT22;38661;53.152;5.846;2023-06-24T13:31:31;30.00;44.20
52787;DHT22;38661;53.152;5.846;2023-06-24T13:33:57;30.10;43.60
52787;DHT22;38661;53.152;5.846;2023-06-24T13:36:31;30.20;43.50
52787;DHT22;38661;53.152;5.846;2023-06-24T13:38:58;30.30;43.30
52787;DHT22;38661;53.152;5.846;2023-06-24T13:41:24;30.30;43.30
52787;DHT22;38661;53.152;5.846;2023-06-24T13:43:52;30.50;44.00
52787;DHT22;38661;53.152;5.846;2023-06-24T13:46:19;30.60;43.30
52787;DHT22;38661;53.152;5.846;2023-06-24T13:48:44;30.40;42.20
52787;DHT22;38661;53.152;5.846;2023-06-24T13:51:13;30.20;43.30
52787;DHT22;38661;53.152;5.846;2023-06-24T13:53:41;30.10;44.50
52787;DHT22;38661;53.152;5.846;2023-06-24T13:56:10;30.30;44.30
52787;DHT22;38661;53.152;5.846;2023-06-24T13:58:35;30.40;43.70
52787;DHT22;38661;53.152;5.846;2023-06-24T14:01:01;30.50;42.60
52787;DHT22;38661;53.152;5.846;2023-06-24T14:03:27;30.60;42.60
52787;DHT22;38661;53.152;5.846;2023-06-24T14:05:55;30.60;43.30
52787;DHT22;38661;53.152;5.846;2023-06-24T14:08:22;30.70;43.30
52787;DHT22;38661;53.152;5.846;2023-06-24T14:10:49;30.80;42.50
52787;DHT22;38661;53.152;5.846;2023-06-24T14:13:14;30.50;42.70
52787;DHT22;38661;53.152;5.846;2023-06-24T14:15:41;30.70;43.20
52787;DHT22;38661;53.152;5.846;2023-06-24T14:18:09;30.50;42.70
52787;DHT22;38661;53.152;5.846;2023-06-24T14:20:37;30.40;43.20
52787;DHT22;38661;53.152;5.846;2023-06-24T14:23:04;30.50;42.60
52787;DHT22;38661;53.152;5.846;2023-06-24T14:25:30;30.70;42.70
52787;DHT22;38661;53.152;5.846;2023-06-24T14:27:56;30.70;42.90
52787;DHT22;38661;53.152;5.846;2023-06-24T14:30:22;30.60;43.10
52787;DHT22;38661;53.152;5.846;2023-06-24T14:32:47;30.60;41.80
52787;DHT22;38661;53.152;5.846;2023-06-24T14:35:13;30.60;42.40
52787;DHT22;38661;53.152;5.846;2023-06-24T14:37:39;30.60;42.90
52787;DHT22;38661;53.152;5.846;2023-06-24T14:40:05;30.60;43.60
52787;DHT22;38661;53.152;5.846;2023-06-24T14:42:31;30.70;43.90
52787;DHT22;38661;53.152;5.846;2023-06-24T14:44:57;30.80;44.30
52787;DHT22;38661;53.152;5.846;2023-06-24T14:47:23;30.80;43.80
52787;DHT22;38661;53.152;5.846;2023-06-24T14:49:49;30.70;43.80
52787;DHT22;38661;53.152;5.846;2023-06-24T14:52:14;30.80;43.30
52787;DHT22;38661;53.152;5.846;2023-06-24T14:54:40;30.70;43.40
52787;DHT22;38661;53.152;5.846;2023-06-24T14:57:06;30.60;43.70
52787;DHT22;38661;53.152;5.846;2023-06-24T14:59:31;30.60;44.20
52787;DHT22;38661;53.152;5.846;2023-06-24T15:01:57;30.70;44.80
52787;DHT22;38661;53.152;5.846;2023-06-24T15:04:23;30.80;44.50
52787;DHT22;38661;53.152;5.846;2023-06-24T15:06:48;30.70;44.70
52787;DHT22;38661;53.152;5.846;2023-06-24T15:09:14;30.80;44.80
52787;DHT22;38661;53.152;5.846;2023-06-24T15:11:40;30.60;44.30
52787;DHT22;38661;53.152;5.846;2023-06-24T15:14:06;30.50;44.00
52787;DHT22;38661;53.152;5.846;2023-06-24T15:16:31;30.40;44.20
52787;DHT22;38661;53.152;5.846;2023-06-24T15:18:57;30.40;44.40
52787;DHT22;38661;53.152;5.846;2023-06-24T15:21:23;30.40;44.40
52787;DHT22;38661;53.152;5.846;2023-06-24T15:23:49;30.60;44.60
52787;DHT22;38661;53.152;5.846;2023-06-24T15:26:15;30.60;43.30
52787;DHT22;38661;53.152;5.846;2023-06-24T15:28:41;30.60;43.40
52787;DHT22;38661;53.152;5.846;2023-06-24T15:31:06;30.70;43.20
52787;DHT22;38661;53.152;5.846;2023-06-24T15:33:32;30.70;43.60
52787;DHT22;38661;53.152;5.846;2023-06-24T15:35:58;30.60;43.30